SAS001 ENHD-ENGM
Flight info
| Callsign | SAS001 |
|---|---|
| Flight time | 0h 30m |
| Altitude | 29000 |
| Route | ODINU DCT BOBGA DCT ADOPI |
| Aircraft | A320/M-SDE3FGHIRWY/LB1 |
Departure
| Time | 2026-05-05 16:05 |
|---|---|
| Airport | Haugesund Airport, Karmøy (ENHD) |
Arrival
| Time | 2026-05-05 16:35 |
|---|---|
| Airport | Oslo-Gardermoen International Airport (ENGM) |
| Time | Latitude | Longitude | Altitude | Speed | Heading |
|---|---|---|---|---|---|
| 2026-05-05 15:46 | 59.34394 | 5.21663 | 91 ft | 0 kts | 44° |
| 2026-05-05 15:57 | 59.34392 | 5.21659 | 87 ft | 3 kts | 44° |
| 2026-05-05 15:57 | 59.34376 | 5.21628 | 89 ft | 4 kts | 57° |
| 2026-05-05 15:58 | 59.34368 | 5.21583 | 89 ft | 4 kts | 101° |
| 2026-05-05 15:58 | 59.34374 | 5.21555 | 89 ft | 0 kts | 135° |
| 2026-05-05 16:00 | 59.34371 | 5.21561 | 87 ft | 2 kts | 135° |
| 2026-05-05 16:01 | 59.34350 | 5.21594 | 89 ft | 6 kts | 148° |
| 2026-05-05 16:01 | 59.34313 | 5.21568 | 89 ft | 7 kts | 224° |
| 2026-05-05 16:01 | 59.34273 | 5.21491 | 92 ft | 10 kts | 224° |
| 2026-05-05 16:01 | 59.34199 | 5.21496 | 90 ft | 14 kts | 140° |
| 2026-05-05 16:02 | 59.34121 | 5.21647 | 85 ft | 18 kts | 135° |
| 2026-05-05 16:02 | 59.34028 | 5.21832 | 87 ft | 21 kts | 134° |
| 2026-05-05 16:02 | 59.33927 | 5.22037 | 91 ft | 21 kts | 134° |
| 2026-05-05 16:02 | 59.33830 | 5.22230 | 97 ft | 18 kts | 134° |
| 2026-05-05 16:03 | 59.33775 | 5.22367 | 97 ft | 10 kts | 106° |
| 2026-05-05 16:03 | 59.33757 | 5.22415 | 98 ft | 2 kts | 202° |
| 2026-05-05 16:03 | 59.33762 | 5.22373 | 99 ft | 5 kts | 300° |
| 2026-05-05 16:03 | 59.33776 | 5.22341 | 97 ft | 0 kts | 313° |
| 2026-05-05 16:04 | 59.33778 | 5.22338 | 97 ft | 3 kts | 313° |
| 2026-05-05 16:04 | 59.33943 | 5.22008 | 94 ft | 72 kts | 314° |
| 2026-05-05 16:04 | 59.34435 | 5.21024 | 84 ft | 130 kts | 314° |
| 2026-05-05 16:04 | 59.35106 | 5.19653 | 504 ft | 139 kts | 314° |
| 2026-05-05 16:05 | 59.35792 | 5.18342 | 1241 ft | 137 kts | 315° |
| 2026-05-05 16:05 | 59.36473 | 5.17034 | 1808 ft | 142 kts | 316° |
| 2026-05-05 16:05 | 59.37250 | 5.15613 | 2125 ft | 164 kts | 321° |
| 2026-05-05 16:05 | 59.38399 | 5.14954 | 2442 ft | 192 kts | 6° |
| 2026-05-05 16:06 | 59.39269 | 5.15685 | 2666 ft | 215 kts | 37° |
| 2026-05-05 16:06 | 59.40190 | 5.18232 | 3149 ft | 245 kts | 61° |
| 2026-05-05 16:06 | 59.40896 | 5.21403 | 3896 ft | 259 kts | 66° |
| 2026-05-05 16:06 | 59.41536 | 5.24743 | 4904 ft | 263 kts | 68° |
| 2026-05-05 16:07 | 59.42169 | 5.28151 | 5911 ft | 268 kts | 67° |
| 2026-05-05 16:07 | 59.42811 | 5.31560 | 6854 ft | 272 kts | 66° |
| 2026-05-05 16:07 | 59.43498 | 5.35115 | 7764 ft | 278 kts | 66° |
| 2026-05-05 16:07 | 59.44195 | 5.38643 | 8624 ft | 284 kts | 65° |
| 2026-05-05 16:08 | 59.44925 | 5.42295 | 9520 ft | 289 kts | 65° |
| 2026-05-05 16:08 | 59.45673 | 5.46005 | 10337 ft | 295 kts | 65° |
| 2026-05-05 16:08 | 59.46455 | 5.49856 | 10773 ft | 315 kts | 65° |
| 2026-05-05 16:08 | 59.47300 | 5.53999 | 11022 ft | 338 kts | 65° |
| 2026-05-05 16:09 | 59.48200 | 5.58431 | 11279 ft | 359 kts | 65° |
| 2026-05-05 16:09 | 59.49130 | 5.63053 | 11890 ft | 367 kts | 65° |
| 2026-05-05 16:09 | 59.50072 | 5.67770 | 12607 ft | 373 kts | 65° |
| 2026-05-05 16:09 | 59.51022 | 5.72544 | 13315 ft | 377 kts | 65° |
| 2026-05-05 16:10 | 59.51985 | 5.77393 | 13970 ft | 384 kts | 65° |
| 2026-05-05 16:10 | 59.52967 | 5.82337 | 14493 ft | 390 kts | 65° |
| 2026-05-05 16:10 | 59.53961 | 5.87351 | 15028 ft | 396 kts | 65° |
| 2026-05-05 16:10 | 59.54970 | 5.92456 | 15590 ft | 403 kts | 65° |
| 2026-05-05 16:11 | 59.55995 | 5.97649 | 16106 ft | 409 kts | 65° |
| 2026-05-05 16:11 | 59.59053 | 6.13818 | 17768 ft | 432 kts | 74° |
| 2026-05-05 16:12 | 59.59651 | 6.19690 | 18352 ft | 440 kts | 76° |
| 2026-05-05 16:12 | 59.60811 | 6.31721 | 19409 ft | 451 kts | 76° |
| 2026-05-05 16:13 | 59.62556 | 6.50358 | 20993 ft | 469 kts | 77° |
| 2026-05-05 16:13 | 59.63143 | 6.56726 | 21454 ft | 475 kts | 77° |
| 2026-05-05 16:13 | 59.63734 | 6.63181 | 21887 ft | 480 kts | 77° |
| 2026-05-05 16:14 | 59.64986 | 6.76418 | 22836 ft | 488 kts | 77° |
| 2026-05-05 16:14 | 59.66257 | 6.89549 | 23645 ft | 496 kts | 77° |
| 2026-05-05 16:15 | 59.67558 | 7.03043 | 24440 ft | 502 kts | 77° |
| 2026-05-05 16:15 | 59.68839 | 7.16717 | 25187 ft | 508 kts | 77° |
| 2026-05-05 16:16 | 59.70117 | 7.30607 | 25867 ft | 518 kts | 77° |
| 2026-05-05 16:16 | 59.71395 | 7.44735 | 26602 ft | 523 kts | 78° |
| 2026-05-05 16:17 | 59.72671 | 7.59007 | 27329 ft | 528 kts | 78° |
| 2026-05-05 16:17 | 59.73312 | 7.66202 | 27679 ft | 531 kts | 78° |
| 2026-05-05 16:18 | 59.74584 | 7.80611 | 28388 ft | 535 kts | 78° |
| 2026-05-05 16:18 | 59.75220 | 7.87910 | 28748 ft | 538 kts | 78° |
| 2026-05-05 16:18 | 59.76477 | 8.02546 | 28951 ft | 537 kts | 78° |
| 2026-05-05 16:19 | 59.77097 | 8.09850 | 28946 ft | 536 kts | 78° |
| 2026-05-05 16:19 | 59.78945 | 8.31730 | 28939 ft | 536 kts | 79° |
| 2026-05-05 16:20 | 59.81355 | 8.60927 | 28954 ft | 536 kts | 79° |
| 2026-05-05 16:22 | 59.84285 | 8.97758 | 26222 ft | 542 kts | 79° |
| 2026-05-05 16:22 | 59.85429 | 9.12560 | 24238 ft | 541 kts | 79° |
| 2026-05-05 16:23 | 59.86565 | 9.27369 | 22205 ft | 538 kts | 79° |
| 2026-05-05 16:23 | 59.87118 | 9.34683 | 21229 ft | 531 kts | 79° |
| 2026-05-05 16:23 | 59.88165 | 9.48929 | 19694 ft | 509 kts | 79° |
| 2026-05-05 16:24 | 59.88668 | 9.55829 | 18953 ft | 498 kts | 79° |
| 2026-05-05 16:24 | 59.89160 | 9.62578 | 18290 ft | 486 kts | 80° |
| 2026-05-05 16:24 | 59.90105 | 9.75603 | 16688 ft | 465 kts | 80° |
| 2026-05-05 16:25 | 59.90562 | 9.81898 | 15882 ft | 455 kts | 80° |
| 2026-05-05 16:25 | 59.91435 | 9.94145 | 14433 ft | 438 kts | 80° |
| 2026-05-05 16:25 | 59.91856 | 10.00114 | 13727 ft | 432 kts | 80° |
| 2026-05-05 16:26 | 59.92670 | 10.11751 | 12393 ft | 417 kts | 81° |
| 2026-05-05 16:26 | 59.93444 | 10.23043 | 11025 ft | 404 kts | 81° |
| 2026-05-05 16:27 | 59.93811 | 10.28464 | 10854 ft | 382 kts | 81° |
| 2026-05-05 16:27 | 59.94104 | 10.33493 | 10604 ft | 351 kts | 88° |
| 2026-05-05 16:27 | 59.93749 | 10.38121 | 10141 ft | 332 kts | 104° |
| 2026-05-05 16:27 | 59.93401 | 10.42480 | 9966 ft | 306 kts | 88° |
| 2026-05-05 16:28 | 59.93665 | 10.46578 | 9535 ft | 294 kts | 76° |
| 2026-05-05 16:28 | 59.94095 | 10.50547 | 9094 ft | 293 kts | 75° |
| 2026-05-05 16:28 | 59.94538 | 10.54526 | 8656 ft | 294 kts | 75° |
| 2026-05-05 16:28 | 59.94985 | 10.58515 | 8226 ft | 295 kts | 75° |
| 2026-05-05 16:29 | 59.95429 | 10.62513 | 7798 ft | 296 kts | 75° |
| 2026-05-05 16:29 | 59.95869 | 10.66526 | 7375 ft | 297 kts | 75° |
| 2026-05-05 16:29 | 59.96306 | 10.70552 | 6960 ft | 297 kts | 75° |
| 2026-05-05 16:29 | 59.96745 | 10.74586 | 6541 ft | 298 kts | 75° |
| 2026-05-05 16:30 | 59.97183 | 10.78627 | 6119 ft | 294 kts | 76° |
| 2026-05-05 16:30 | 59.97618 | 10.82540 | 5687 ft | 283 kts | 75° |
| 2026-05-05 16:30 | 59.98071 | 10.86280 | 5251 ft | 272 kts | 73° |
| 2026-05-05 16:30 | 59.98528 | 10.89896 | 4846 ft | 265 kts | 72° |
| 2026-05-05 16:31 | 59.99009 | 10.93381 | 4422 ft | 255 kts | 65° |
| 2026-05-05 16:31 | 59.99994 | 10.96136 | 4072 ft | 237 kts | 35° |
| 2026-05-05 16:31 | 60.01412 | 10.97606 | 3832 ft | 227 kts | 12° |
| 2026-05-05 16:31 | 60.02921 | 10.98465 | 3579 ft | 223 kts | 11° |
| 2026-05-05 16:32 | 60.04371 | 10.99284 | 3500 ft | 210 kts | 11° |
| 2026-05-05 16:32 | 60.05742 | 11.00064 | 3346 ft | 202 kts | 12° |
| 2026-05-05 16:32 | 60.07068 | 11.00820 | 3144 ft | 194 kts | 11° |
| 2026-05-05 16:32 | 60.08351 | 11.01553 | 2864 ft | 190 kts | 11° |
| 2026-05-05 16:33 | 60.09617 | 11.02276 | 2595 ft | 188 kts | 12° |
| 2026-05-05 16:33 | 60.10857 | 11.02987 | 2339 ft | 181 kts | 11° |
| 2026-05-05 16:33 | 60.12019 | 11.03657 | 2087 ft | 166 kts | 9° |
| 2026-05-05 16:33 | 60.13082 | 11.04269 | 1871 ft | 152 kts | 9° |
| 2026-05-05 16:34 | 60.14059 | 11.04828 | 1665 ft | 142 kts | 9° |
| 2026-05-05 16:34 | 60.15008 | 11.05375 | 1434 ft | 142 kts | 11° |
| 2026-05-05 16:34 | 60.15956 | 11.05935 | 1245 ft | 143 kts | 10° |
| 2026-05-05 16:34 | 60.16932 | 11.06459 | 1053 ft | 147 kts | 9° |
| 2026-05-05 16:35 | 60.17934 | 11.07043 | 846 ft | 152 kts | 12° |
| 2026-05-05 16:35 | 60.18922 | 11.07614 | 671 ft | 137 kts | 14° |
| 2026-05-05 16:35 | 60.19693 | 11.08058 | 673 ft | 91 kts | 17° |
| 2026-05-05 16:35 | 60.20098 | 11.08299 | 676 ft | 23 kts | 16° |
| 2026-05-05 16:36 | 60.20187 | 11.08392 | 677 ft | 13 kts | 37° |
| 2026-05-05 16:36 | 60.20244 | 11.08526 | 677 ft | 10 kts | 67° |
| 2026-05-05 16:36 | 60.20247 | 11.08628 | 677 ft | 3 kts | 102° |
| 2026-05-05 16:36 | 60.20242 | 11.08661 | 678 ft | 4 kts | 108° |
| 2026-05-05 16:37 | 60.20229 | 11.08740 | 680 ft | 6 kts | 104° |
| 2026-05-05 16:37 | 60.20213 | 11.08855 | 680 ft | 11 kts | 109° |
| 2026-05-05 16:37 | 60.20187 | 11.09014 | 679 ft | 14 kts | 105° |
| 2026-05-05 16:37 | 60.20158 | 11.09225 | 680 ft | 17 kts | 106° |
| 2026-05-05 16:38 | 60.20125 | 11.09461 | 680 ft | 19 kts | 105° |
| 2026-05-05 16:38 | 60.20086 | 11.09718 | 684 ft | 17 kts | 107° |
| 2026-05-05 16:38 | 60.20012 | 11.09799 | 684 ft | 15 kts | 197° |
| 2026-05-05 16:38 | 60.19908 | 11.09732 | 683 ft | 17 kts | 195° |
| 2026-05-05 16:39 | 60.19787 | 11.09658 | 683 ft | 19 kts | 194° |
| 2026-05-05 16:39 | 60.19672 | 11.09577 | 680 ft | 14 kts | 205° |
| 2026-05-05 16:39 | 60.19609 | 11.09534 | 685 ft | 7 kts | 196° |
| 2026-05-05 16:39 | 60.19565 | 11.09508 | 683 ft | 3 kts | 196° |
| 2026-05-05 16:40 | 60.19552 | 11.09500 | 685 ft | 0 kts | 197° |